createdAt,value
2019-01-20T00:00:54.167Z,-4.82
2019-01-20T00:03:25.251Z,-4.82
2019-01-20T00:05:54.750Z,-4.84
2019-01-20T00:08:24.258Z,-4.85
2019-01-20T00:10:54.041Z,-4.89
2019-01-20T00:13:23.560Z,-4.87
2019-01-20T00:15:53.356Z,-4.95
2019-01-20T00:18:22.819Z,-4.87
2019-01-20T00:20:52.391Z,-5.02
2019-01-20T00:23:22.218Z,-5.02
2019-01-20T00:25:51.765Z,-5.06
2019-01-20T00:28:21.211Z,-5.16
2019-01-20T00:30:50.714Z,-5.16
2019-01-20T00:33:20.173Z,-5.17
2019-01-20T00:35:49.636Z,-5.15
2019-01-20T00:38:19.166Z,-5.12
2019-01-20T00:40:48.630Z,-5.18
2019-01-20T00:43:18.102Z,-5.16
2019-01-20T00:45:47.886Z,-5.16
2019-01-20T00:48:17.373Z,-5.16
2019-01-20T00:50:46.895Z,-5.16
2019-01-20T00:53:16.377Z,-5.13
2019-01-20T00:55:45.881Z,-5.08
2019-01-20T00:58:15.315Z,-5.07
2019-01-20T01:00:44.808Z,-5.11
2019-01-20T01:03:14.581Z,-5.16
2019-01-20T01:05:44.132Z,-5.20
2019-01-20T01:08:17.071Z,-5.28
2019-01-20T01:10:46.603Z,-5.34
2019-01-20T01:13:16.064Z,-5.27
2019-01-20T01:15:46.150Z,-5.27
2019-01-20T01:18:15.613Z,-5.34
2019-01-20T01:20:45.419Z,-5.31
2019-01-20T01:23:14.969Z,-5.29
2019-01-20T01:25:44.758Z,-5.31
2019-01-20T01:28:14.202Z,-5.23
2019-01-20T01:30:43.703Z,-5.23
2019-01-20T01:33:13.170Z,-5.18
2019-01-20T01:35:42.714Z,-5.18
2019-01-20T01:38:12.342Z,-5.11
2019-01-20T01:40:41.821Z,-5.15
2019-01-20T01:43:11.361Z,-5.15
2019-01-20T01:45:40.810Z,-5.15
2019-01-20T01:48:10.357Z,-5.14
2019-01-20T01:50:39.798Z,-5.17
2019-01-20T01:53:09.324Z,-5.17
2019-01-20T01:55:39.208Z,-5.14
2019-01-20T01:58:08.662Z,-5.07
2019-01-20T02:00:38.443Z,-5.12
2019-01-20T02:03:10.025Z,-5.12
2019-01-20T02:05:39.469Z,-5.16
2019-01-20T02:08:08.935Z,-5.16
2019-01-20T02:10:38.899Z,-5.16
2019-01-20T02:13:09.982Z,-5.14
2019-01-20T02:15:39.588Z,-5.08
2019-01-20T02:18:09.386Z,-5.08
2019-01-20T02:20:38.834Z,-5.08
2019-01-20T02:23:08.341Z,-5.09
2019-01-20T02:25:37.816Z,-5.14
2019-01-20T02:28:07.292Z,-5.14
2019-01-20T02:30:36.734Z,-5.12
2019-01-20T02:33:06.284Z,-5.12
2019-01-20T02:35:36.462Z,-5.14
2019-01-20T02:38:07.799Z,-5.17
2019-01-20T02:40:37.320Z,-5.22
2019-01-20T02:43:07.056Z,-5.22
2019-01-20T02:45:36.520Z,-5.24
2019-01-20T02:48:05.975Z,-5.27
2019-01-20T02:50:35.693Z,-5.30
2019-01-20T02:53:05.203Z,-5.30
2019-01-20T02:55:34.674Z,-5.35
2019-01-20T02:58:04.302Z,-5.45
2019-01-20T03:00:33.731Z,-5.45
2019-01-20T03:03:03.248Z,-5.51
2019-01-20T03:05:32.664Z,-5.51
2019-01-20T03:08:03.701Z,-5.49
2019-01-20T03:10:33.648Z,-5.58
2019-01-20T03:13:03.126Z,-5.63
2019-01-20T03:15:32.556Z,-5.57
2019-01-20T03:18:02.040Z,-5.57
2019-01-20T03:20:31.842Z,-5.58
2019-01-20T03:23:01.420Z,-5.61
2019-01-20T03:25:30.875Z,-5.55
2019-01-20T03:28:00.677Z,-5.64
2019-01-20T03:30:30.480Z,-5.62
2019-01-20T03:33:00.304Z,-5.67
2019-01-20T03:35:29.751Z,-5.70
2019-01-20T03:37:59.286Z,-5.70
2019-01-20T03:40:28.729Z,-5.65
2019-01-20T03:42:58.188Z,-5.76
2019-01-20T03:45:27.654Z,-5.77
2019-01-20T03:47:57.100Z,-5.76
2019-01-20T03:50:26.543Z,-5.77
2019-01-20T03:52:56.245Z,-5.80
2019-01-20T03:55:25.702Z,-5.86
2019-01-20T03:57:55.153Z,-5.81
2019-01-20T04:00:25.135Z,-5.84
2019-01-20T04:02:56.650Z,-5.86
2019-01-20T04:05:26.095Z,-5.89
2019-01-20T04:07:55.940Z,-5.86
2019-01-20T04:10:25.474Z,-5.89
2019-01-20T04:12:54.956Z,-5.91
2019-01-20T04:15:24.467Z,-5.82
2019-01-20T04:17:53.858Z,-5.87
2019-01-20T04:20:23.406Z,-5.84
2019-01-20T04:22:52.876Z,-5.88
2019-01-20T04:25:22.324Z,-5.87
2019-01-20T04:27:52.114Z,-5.92
2019-01-20T04:30:21.596Z,-6.02
2019-01-20T04:32:51.153Z,-6.07
2019-01-20T04:35:20.624Z,-6.12
2019-01-20T04:37:50.170Z,-6.05
2019-01-20T04:40:21.153Z,-6.15
2019-01-20T04:42:50.615Z,-6.22
2019-01-20T04:45:20.057Z,-6.20
2019-01-20T04:47:49.631Z,-6.22
2019-01-20T04:50:21.163Z,-6.27
2019-01-20T04:52:50.696Z,-6.24
2019-01-20T04:55:20.151Z,-6.20
2019-01-20T04:57:50.976Z,-6.25
2019-01-20T05:00:22.565Z,-6.36
2019-01-20T05:02:52.033Z,-6.46
2019-01-20T05:05:22.199Z,-6.52
2019-01-20T05:07:52.197Z,-6.55
2019-01-20T05:10:21.655Z,-6.54
2019-01-20T05:12:51.182Z,-6.46
2019-01-20T05:15:22.285Z,-6.44
2019-01-20T05:17:51.746Z,-6.48
2019-01-20T05:20:21.214Z,-6.48
2019-01-20T05:22:50.984Z,-6.45
2019-01-20T05:25:20.430Z,-6.32
2019-01-20T05:27:49.894Z,-6.32
2019-01-20T05:30:21.650Z,-6.40
2019-01-20T05:32:51.106Z,-6.42
2019-01-20T05:35:20.934Z,-6.48
2019-01-20T05:37:50.420Z,-6.42
2019-01-20T05:40:21.126Z,-6.42
2019-01-20T05:42:50.595Z,-6.42
2019-01-20T05:45:22.241Z,-6.48
2019-01-20T05:47:51.718Z,-6.36
2019-01-20T05:50:21.156Z,-6.43
2019-01-20T05:52:50.628Z,-6.44
2019-01-20T05:55:20.073Z,-6.40
2019-01-20T05:57:49.611Z,-6.43
2019-01-20T06:00:25.003Z,-6.53
2019-01-20T06:02:55.532Z,-6.57
2019-01-20T06:05:24.988Z,-6.55
2019-01-20T06:07:56.094Z,-6.64
2019-01-20T06:10:25.694Z,-6.58
2019-01-20T06:12:55.172Z,-6.58
2019-01-20T06:15:24.916Z,-6.59
2019-01-20T06:17:54.550Z,-6.57
2019-01-20T06:20:24.165Z,-6.69
2019-01-20T06:22:53.948Z,-6.69
2019-01-20T06:25:23.389Z,-6.78
2019-01-20T06:27:53.077Z,-6.82
2019-01-20T06:30:28.084Z,-6.78
2019-01-20T06:32:57.906Z,-6.87
2019-01-20T06:35:28.537Z,-6.96
2019-01-20T06:37:58.016Z,-6.96
2019-01-20T06:40:27.482Z,-6.98
2019-01-20T06:43:01.798Z,-7.01
2019-01-20T06:45:28.432Z,-7.01
2019-01-20T06:47:57.883Z,-7.01
2019-01-20T06:50:27.370Z,-7.00
2019-01-20T06:52:56.829Z,-7.00
2019-01-20T06:55:26.319Z,-6.93
2019-01-20T06:57:56.039Z,-6.95
2019-01-20T07:00:25.632Z,-6.99
2019-01-20T07:02:55.187Z,-7.04
2019-01-20T07:05:24.971Z,-7.04
2019-01-20T07:07:54.805Z,-7.05
2019-01-20T07:10:24.343Z,-6.99
2019-01-20T07:12:53.806Z,-6.96
2019-01-20T07:15:24.064Z,-6.96
2019-01-20T07:17:53.511Z,-6.95
2019-01-20T07:20:22.997Z,-6.96
2019-01-20T07:22:53.737Z,-6.89
2019-01-20T07:25:23.235Z,-6.83
2019-01-20T07:27:52.943Z,-6.61
2019-01-20T07:30:23.058Z,-6.55
2019-01-20T07:32:52.529Z,-6.25
2019-01-20T07:35:22.329Z,-6.10
2019-01-20T07:37:52.440Z,-5.93
2019-01-20T07:40:22.677Z,-5.86
2019-01-20T07:42:54.934Z,-5.55
2019-01-20T07:45:25.053Z,-5.55
2019-01-20T07:47:54.884Z,-5.24
2019-01-20T07:50:25.265Z,-5.13
2019-01-20T07:52:55.453Z,-4.89
2019-01-20T07:55:24.931Z,-4.54
2019-01-20T07:57:54.388Z,-3.95
2019-01-20T08:00:25.160Z,-3.43
2019-01-20T08:02:54.613Z,-2.83
2019-01-20T08:05:24.101Z,-2.34
2019-01-20T08:07:53.618Z,-2.03
2019-01-20T08:10:25.274Z,-0.79
2019-01-20T08:12:54.808Z,-0.79
2019-01-20T08:15:24.339Z,-0.34
2019-01-20T08:17:53.814Z,0.02
2019-01-20T08:20:24.612Z,0.92
2019-01-20T08:22:54.191Z,1.37
2019-01-20T08:25:23.659Z,1.68
2019-01-20T08:27:53.304Z,2.30
2019-01-20T08:30:24.795Z,2.68
2019-01-20T08:32:54.416Z,2.59
2019-01-20T08:35:24.238Z,3.41
2019-01-20T08:37:54.130Z,4.21
2019-01-20T08:40:28.249Z,3.73
2019-01-20T08:42:58.026Z,4.27
2019-01-20T08:45:51.431Z,5.46
2019-01-20T08:48:23.419Z,5.30
2019-01-20T08:50:53.916Z,4.63
2019-01-20T08:53:23.370Z,5.04
2019-01-20T08:55:52.864Z,6.26
2019-01-20T08:58:22.633Z,5.52
2019-01-20T09:00:52.111Z,5.39
2019-01-20T09:03:21.857Z,5.51
2019-01-20T09:05:51.314Z,5.75
2019-01-20T09:08:21.963Z,5.40
2019-01-20T09:10:51.716Z,5.49
2019-01-20T09:13:21.605Z,5.97
2019-01-20T09:15:51.047Z,5.67
2019-01-20T09:18:20.519Z,5.30
2019-01-20T09:20:49.984Z,6.81
2019-01-20T09:23:19.447Z,5.46
2019-01-20T09:25:48.945Z,5.66
2019-01-20T09:28:18.406Z,5.45
2019-01-20T09:30:47.901Z,5.09
2019-01-20T09:33:24.567Z,5.84
2019-01-20T09:35:48.507Z,5.04
2019-01-20T09:38:17.963Z,5.09
2019-01-20T09:40:47.425Z,5.65
2019-01-20T09:43:16.877Z,6.70
2019-01-20T09:45:46.711Z,6.75
2019-01-20T09:48:16.150Z,6.28
2019-01-20T09:50:45.910Z,5.96
2019-01-20T09:53:15.732Z,5.62
2019-01-20T09:55:45.544Z,6.23
2019-01-20T09:58:15.007Z,5.12
2019-01-20T10:00:44.517Z,5.39
2019-01-20T10:03:16.365Z,5.61
2019-01-20T10:05:45.120Z,6.71
2019-01-20T10:08:14.618Z,6.28
2019-01-20T10:10:44.093Z,5.26
2019-01-20T10:13:13.544Z,5.06
2019-01-20T10:15:43.390Z,6.11
2019-01-20T10:18:13.076Z,6.80
2019-01-20T10:20:42.563Z,6.35
2019-01-20T10:23:12.009Z,6.75
2019-01-20T10:25:41.484Z,6.09
2019-01-20T10:28:11.011Z,6.58
2019-01-20T10:30:40.929Z,6.33
2019-01-20T10:33:10.382Z,7.02
2019-01-20T10:35:41.486Z,5.92
2019-01-20T10:38:11.657Z,6.61
2019-01-20T10:40:41.121Z,6.23
2019-01-20T10:43:10.603Z,6.54
2019-01-20T10:45:40.064Z,6.68
2019-01-20T10:48:09.875Z,7.03
2019-01-20T10:50:39.715Z,6.98
2019-01-20T10:53:09.512Z,7.33
2019-01-20T10:55:38.987Z,8.27
2019-01-20T10:58:08.787Z,7.48
2019-01-20T11:00:40.203Z,8.24
2019-01-20T11:03:09.677Z,8.26
2019-01-20T11:05:39.225Z,8.65
2019-01-20T11:08:08.663Z,7.97
2019-01-20T11:10:39.944Z,7.27
2019-01-20T11:13:09.889Z,7.34
2019-01-20T11:15:39.400Z,7.64
2019-01-20T11:18:08.905Z,8.06
2019-01-20T11:20:38.706Z,8.24
2019-01-20T11:23:08.450Z,8.26
2019-01-20T11:25:40.209Z,8.20
2019-01-20T11:28:10.098Z,8.61
2019-01-20T11:30:39.662Z,8.84
2019-01-20T11:33:09.180Z,9.79
2019-01-20T11:35:39.033Z,8.61
2019-01-20T11:38:08.500Z,8.66
2019-01-20T11:40:38.225Z,8.75
2019-01-20T11:43:07.687Z,9.37
2019-01-20T11:45:37.201Z,9.45
2019-01-20T11:48:07.171Z,9.40
2019-01-20T11:50:36.626Z,9.76
2019-01-20T11:53:06.237Z,10.32
2019-01-20T11:55:35.868Z,9.60
2019-01-20T11:58:05.421Z,10.48
2019-01-20T12:00:35.678Z,10.06
2019-01-20T12:03:05.457Z,10.41
2019-01-20T12:05:35.208Z,9.89
2019-01-20T12:08:05.109Z,9.91
2019-01-20T12:10:34.648Z,8.79
2019-01-20T12:13:06.030Z,10.03
2019-01-20T12:15:35.709Z,9.27
2019-01-20T12:18:05.507Z,9.54
2019-01-20T12:20:35.073Z,10.16
2019-01-20T12:23:05.295Z,9.62
2019-01-20T12:25:35.113Z,9.85
2019-01-20T12:28:05.129Z,9.21
2019-01-20T12:30:37.100Z,9.41
2019-01-20T12:33:06.959Z,9.46
2019-01-20T12:35:36.788Z,8.88
2019-01-20T12:38:06.321Z,8.95
2019-01-20T12:40:38.905Z,9.16
2019-01-20T12:43:08.384Z,8.42
2019-01-20T12:45:37.841Z,8.29
2019-01-20T12:48:07.422Z,8.70
2019-01-20T12:50:36.943Z,8.65
2019-01-20T12:53:06.413Z,9.13
2019-01-20T12:55:35.943Z,8.34
2019-01-20T12:58:05.868Z,9.20
2019-01-20T13:00:35.379Z,9.81
2019-01-20T13:03:05.531Z,9.31
2019-01-20T13:05:35.082Z,8.70
2019-01-20T13:08:04.703Z,9.30
2019-01-20T13:10:34.163Z,8.52
2019-01-20T13:13:03.847Z,7.68
2019-01-20T13:15:33.398Z,7.92
2019-01-20T13:18:02.898Z,8.65
2019-01-20T13:20:32.370Z,9.24
2019-01-20T13:23:02.039Z,8.80
2019-01-20T13:25:33.587Z,9.09
2019-01-20T13:28:03.130Z,8.00
2019-01-20T13:30:32.673Z,8.01
2019-01-20T13:33:02.149Z,8.03
2019-01-20T13:35:31.691Z,7.14
2019-01-20T13:38:04.013Z,7.16
2019-01-20T13:40:42.574Z,6.95
2019-01-20T13:43:12.063Z,8.10
2019-01-20T13:45:41.886Z,7.61
2019-01-20T13:48:11.641Z,7.83
2019-01-20T13:50:41.164Z,8.64
2019-01-20T13:53:11.230Z,7.78
2019-01-20T13:55:40.778Z,7.30
2019-01-20T13:58:10.645Z,7.47
2019-01-20T14:00:40.137Z,7.22
2019-01-20T14:03:09.856Z,7.54
2019-01-20T14:05:39.765Z,7.37
2019-01-20T14:08:11.202Z,7.08
2019-01-20T14:10:41.053Z,7.41
2019-01-20T14:13:10.977Z,7.18
2019-01-20T14:15:40.729Z,6.86
2019-01-20T14:18:10.430Z,6.72
2019-01-20T14:20:39.944Z,6.89
2019-01-20T14:23:09.856Z,6.91
2019-01-20T14:25:39.404Z,6.83
2019-01-20T14:28:08.957Z,6.48
2019-01-20T14:30:38.428Z,6.11
2019-01-20T14:33:08.290Z,5.52
2019-01-20T14:35:37.870Z,5.42
2019-01-20T14:38:07.408Z,5.16
2019-01-20T14:40:38.005Z,4.95
2019-01-20T14:43:07.580Z,4.55
2019-01-20T14:45:37.036Z,4.09
2019-01-20T14:48:06.730Z,3.86
2019-01-20T14:50:36.296Z,3.89
2019-01-20T14:53:05.839Z,3.61
2019-01-20T14:55:36.108Z,3.47
2019-01-20T14:58:05.867Z,3.31
2019-01-20T15:00:38.525Z,3.21
2019-01-20T15:03:08.590Z,3.09
2019-01-20T15:05:38.059Z,2.80
2019-01-20T15:08:08.550Z,2.87
2019-01-20T15:10:38.112Z,2.49
2019-01-20T15:13:08.914Z,2.35
2019-01-20T15:15:40.049Z,2.15
2019-01-20T15:22:05.182Z,1.77
2019-01-20T15:24:34.657Z,1.65
2019-01-20T15:27:04.143Z,1.45
2019-01-20T15:29:33.615Z,1.24
2019-01-20T15:32:03.089Z,1.02
2019-01-20T15:34:32.886Z,0.84
2019-01-20T15:37:02.377Z,0.79
2019-01-20T15:39:31.843Z,0.62
2019-01-20T15:42:01.297Z,0.44
2019-01-20T15:44:30.773Z,0.34
2019-01-20T15:47:00.585Z,0.28
2019-01-20T15:49:30.057Z,0.20
2019-01-20T15:51:59.796Z,0.18
2019-01-20T15:54:29.377Z,0.10
2019-01-20T15:57:01.309Z,0.05
2019-01-20T15:59:30.954Z,-0.03
2019-01-20T16:02:00.539Z,-0.09
2019-01-20T16:04:30.162Z,-0.12
2019-01-20T16:06:59.630Z,-0.18
2019-01-20T16:09:29.121Z,-0.25
2019-01-20T16:11:58.688Z,-0.27
2019-01-20T16:14:28.183Z,-0.28
2019-01-20T16:16:57.690Z,-0.37
2019-01-20T16:19:27.547Z,-0.46
2019-01-20T16:21:57.273Z,-0.50
2019-01-20T16:24:27.063Z,-0.58
2019-01-20T16:27:00.923Z,-0.63
2019-01-20T16:29:27.890Z,-0.61
2019-01-20T16:32:08.686Z,-0.61
2019-01-20T16:34:38.170Z,-0.69
2019-01-20T16:37:08.128Z,-0.66
2019-01-20T16:39:37.671Z,-0.77
2019-01-20T16:42:07.690Z,-0.79
2019-01-20T16:44:37.179Z,-0.82
2019-01-20T16:47:06.644Z,-0.83
2019-01-20T16:49:36.114Z,-0.83
2019-01-20T16:52:05.907Z,-0.87
2019-01-20T16:54:37.277Z,-0.90
2019-01-20T16:57:06.748Z,-0.95
2019-01-20T16:59:36.528Z,-0.98
2019-01-20T17:02:05.992Z,-0.97
2019-01-20T17:04:35.460Z,-1.02
2019-01-20T17:07:05.268Z,-1.10
2019-01-20T17:09:34.803Z,-1.15
2019-01-20T17:12:04.445Z,-1.17
2019-01-20T17:14:34.028Z,-1.32
2019-01-20T17:17:03.759Z,-1.29
2019-01-20T17:19:33.223Z,-1.32
2019-01-20T17:22:02.671Z,-1.30
2019-01-20T17:24:32.133Z,-1.34
2019-01-20T17:27:01.589Z,-1.36
2019-01-20T17:29:31.112Z,-1.36
2019-01-20T17:32:00.561Z,-1.41
2019-01-20T17:34:30.109Z,-1.46
2019-01-20T17:36:59.559Z,-1.44
2019-01-20T17:39:29.022Z,-1.45
2019-01-20T17:41:58.857Z,-1.44
2019-01-20T17:44:30.346Z,-1.44
2019-01-20T17:46:59.799Z,-1.48
2019-01-20T17:49:29.526Z,-1.50
2019-01-20T17:51:59.470Z,-1.46
2019-01-20T17:54:28.994Z,-1.48
2019-01-20T17:56:58.475Z,-1.54
2019-01-20T17:59:28.009Z,-1.62
2019-01-20T18:01:57.481Z,-1.69
2019-01-20T18:04:26.962Z,-1.84
2019-01-20T18:06:56.447Z,-1.84
2019-01-20T18:09:26.312Z,-1.94
2019-01-20T18:11:56.116Z,-2.01
2019-01-20T18:14:25.877Z,-2.04
2019-01-20T18:16:55.337Z,-2.09
2019-01-20T18:19:24.842Z,-0.97
2019-01-20T18:21:54.556Z,-0.46
2019-01-20T18:24:24.027Z,-0.97
2019-01-20T18:26:53.495Z,-1.44
2019-01-20T18:29:22.944Z,-1.64
2019-01-20T18:31:52.675Z,-1.91
2019-01-20T18:34:22.170Z,-2.05
2019-01-20T18:36:51.649Z,-2.15
2019-01-20T18:39:21.395Z,-2.34
2019-01-20T18:41:50.860Z,-2.38
2019-01-20T18:44:20.362Z,-2.50
2019-01-20T18:46:49.821Z,-2.53
2019-01-20T18:49:19.297Z,-2.62
2019-01-20T18:51:48.765Z,-2.67
2019-01-20T18:54:18.795Z,-2.68
2019-01-20T18:56:48.757Z,-2.76
2019-01-20T18:59:18.340Z,-2.79
2019-01-20T19:01:47.855Z,-2.77
2019-01-20T19:04:17.567Z,-2.82
2019-01-20T19:06:47.030Z,-2.89
2019-01-20T19:09:16.476Z,-2.85
2019-01-20T19:11:46.027Z,-2.92
2019-01-20T19:14:15.589Z,-2.97
2019-01-20T19:16:45.151Z,-3.04
2019-01-20T19:19:14.958Z,-3.10
2019-01-20T19:21:44.424Z,-3.08
2019-01-20T19:24:14.212Z,-3.16
2019-01-20T19:26:43.869Z,-3.15
2019-01-20T19:29:13.666Z,-3.23
2019-01-20T19:31:43.479Z,-3.31
2019-01-20T19:34:13.274Z,-3.37
2019-01-20T19:36:43.499Z,-3.43
2019-01-20T19:39:12.965Z,-3.46
2019-01-20T19:41:42.714Z,-3.48
2019-01-20T19:44:12.179Z,-3.49
2019-01-20T19:46:41.730Z,-3.47
2019-01-20T19:49:11.521Z,-3.48
2019-01-20T19:51:41.046Z,-3.54
2019-01-20T19:54:10.533Z,-3.57
2019-01-20T19:56:40.012Z,-3.63
2019-01-20T19:59:09.530Z,-3.64
2019-01-20T20:01:39.031Z,-3.65
2019-01-20T20:04:08.498Z,-3.72
2019-01-20T20:06:38.072Z,-3.77
2019-01-20T20:09:10.322Z,-3.81
2019-01-20T20:11:40.072Z,-3.85
2019-01-20T20:14:09.876Z,-3.79
2019-01-20T20:16:39.802Z,-3.88
2019-01-20T20:19:09.729Z,-3.86
2019-01-20T20:21:40.338Z,-3.95
2019-01-20T20:24:10.160Z,-3.92
2019-01-20T20:26:40.099Z,-3.94
2019-01-20T20:29:09.558Z,-3.97
2019-01-20T20:31:39.074Z,-3.98
2019-01-20T20:34:08.794Z,-4.01
2019-01-20T20:36:38.270Z,-4.05
2019-01-20T20:39:08.626Z,-4.10
2019-01-20T20:41:38.101Z,-4.16
2019-01-20T20:44:07.556Z,-4.20
2019-01-20T20:46:37.038Z,-4.33
2019-01-20T20:49:06.512Z,-4.29
2019-01-20T20:51:35.990Z,-4.40
2019-01-20T20:54:05.792Z,-4.39
2019-01-20T20:56:35.307Z,-4.42
2019-01-20T20:59:05.967Z,-4.44
2019-01-20T21:01:35.423Z,-4.48
2019-01-20T21:04:04.949Z,-4.53
2019-01-20T21:06:34.421Z,-4.57
2019-01-20T21:09:05.509Z,-4.61
2019-01-20T21:11:36.169Z,-4.65
2019-01-20T21:14:06.775Z,-4.71
2019-01-20T21:16:37.977Z,-4.65
2019-01-20T21:19:07.611Z,-4.64
2019-01-20T21:21:37.093Z,-4.69
2019-01-20T21:24:06.551Z,-4.65
2019-01-20T21:26:36.063Z,-4.60
2019-01-20T21:29:05.536Z,-4.65
2019-01-20T21:31:35.426Z,-4.74
2019-01-20T21:34:04.876Z,-4.76
2019-01-20T21:36:34.827Z,-4.85
2019-01-20T21:39:06.677Z,-4.85
2019-01-20T21:41:36.398Z,-4.75
2019-01-20T21:44:05.856Z,-4.75
2019-01-20T21:46:35.332Z,-4.69
2019-01-20T21:49:04.858Z,-4.73
2019-01-20T21:51:34.752Z,-4.70
2019-01-20T21:54:04.309Z,-4.74
2019-01-20T21:56:34.142Z,-4.91
2019-01-20T21:59:03.593Z,-4.91
2019-01-20T22:01:33.308Z,-5.00
2019-01-20T22:04:02.748Z,-5.00
2019-01-20T22:06:32.235Z,-5.05
2019-01-20T22:09:01.689Z,-5.15
2019-01-20T22:11:31.147Z,-5.16
2019-01-20T22:14:00.600Z,-5.16
2019-01-20T22:16:30.072Z,-5.13
2019-01-20T22:18:59.513Z,-5.16
2019-01-20T22:21:28.976Z,-5.14
2019-01-20T22:23:58.502Z,-5.12
2019-01-20T22:26:27.957Z,-5.07
2019-01-20T22:28:57.751Z,-5.11
2019-01-20T22:31:27.475Z,-5.15
2019-01-20T22:33:57.613Z,-5.13
2019-01-20T22:36:27.340Z,-5.26
2019-01-20T22:38:56.792Z,-5.30
2019-01-20T22:41:26.253Z,-5.25
2019-01-20T22:43:55.849Z,-5.35
2019-01-20T22:46:25.413Z,-5.27
2019-01-20T22:48:54.878Z,-5.24
2019-01-20T22:51:24.370Z,-5.23
2019-01-20T22:53:54.238Z,-5.26
2019-01-20T22:56:23.695Z,-5.37
2019-01-20T22:58:53.171Z,-5.35
2019-01-20T23:01:23.201Z,-5.37
2019-01-20T23:03:53.878Z,-5.33
2019-01-20T23:06:23.358Z,-5.40
2019-01-20T23:08:52.804Z,-5.49
2019-01-20T23:11:22.270Z,-5.54
2019-01-20T23:13:52.133Z,-5.64
2019-01-20T23:16:21.661Z,-5.68
2019-01-20T23:18:51.132Z,-5.67
2019-01-20T23:21:21.079Z,-5.63
2019-01-20T23:23:50.547Z,-5.69
2019-01-20T23:26:20.094Z,-5.69
2019-01-20T23:28:49.596Z,-5.64
2019-01-20T23:31:19.123Z,-5.73
2019-01-20T23:33:48.588Z,-5.78
2019-01-20T23:36:18.503Z,-5.79
2019-01-20T23:38:47.969Z,-5.83
2019-01-20T23:41:17.429Z,-5.87
2019-01-20T23:43:47.815Z,-5.88
2019-01-20T23:46:17.567Z,-5.96
2019-01-20T23:48:52.660Z,-5.98
2019-01-20T23:51:22.113Z,-5.94
2019-01-20T23:53:51.590Z,-5.98
2019-01-20T23:56:21.027Z,-6.04
2019-01-20T23:58:50.495Z,-6.06
